Station: Maatsuyker Island  

  Atmospheric Gas Attenuation - ITU Rec 676-11   ----------------- dB/100km -----------------
Date Time Temp RH % AH g/m3 Dew Point Wind Direction Speed kph Gust kph Barometer mB Rainfall Since 9am 24GHz 47GHz 76GHz 122GHz 134GHz 241GHz
08/05 12:30 10.3 100 9.58 10.3 35 46 1016.9 0.2 21.9 28.8 46.0 120.9 117.2 403.6
08/05 12:20 10.1 100 9.46 10.1 35 44 1016.9 0.2 21.6 28.6 45.6 119.8 115.7 398.6
08/05 12:10 10.4 100 9.64 10.4 26 32 1016.9 0.2 22.0 28.8 46.2 121.4 117.9 406.1
08/05 12:00 9.7 100 9.22 9.7 28 37 1016.9 0.2 21.1 28.3 44.8 117.6 112.9 388.6
08/05 11:50 9.7 100 9.22 9.7 32 39 1016.9 0.2 21.1 28.3 44.8 117.6 112.9 388.6
08/05 11:40 10.3 100 9.58 10.3 32 35 1016.9 0.2 21.9 28.8 46.0 120.9 117.2 403.6
08/05 11:30 10.2 100 9.52 10.2 33 44 1016.8 0.2 21.7 28.7 45.8 120.3 116.4 401.0
08/05 11:20 10.5 95 9.22 9.7 32 35 1016.8 0.2 21.1 28.1 44.3 116.4 111.7 384.5
08/05 11:10 10.4 91 8.77 9 33 41 1016.7 0.2 20.1 27.3 42.4 111.4 105.5 362.8
08/05 11:00 10.4 92 8.87 9.2 32 41 1016.5 0.2 20.3 27.5 42.8 112.5 106.9 367.7
08/05 10:50 10.1 95 8.99 9.3 33 44 1016.5 0.2 20.6 27.8 43.5 114.3 109.0 375.0
08/05 10:40 9.6 100 9.16 9.6 30 37 1016.4 0.2 21.0 28.2 44.5 117.0 112.1 385.9
08/05 10:30 9.4 100 9.05 9.4 35 46 1016.4 0.2 20.8 28.1 44.2 116.0 110.8 381.4
08/05 10:20 10.1 93 8.8 9 32 41 1016.3 0 20.2 27.5 42.7 112.1 106.3 365.6
08/05 10:10 10 91 8.55 8.6 37 41 1016.3 0 19.7 27.1 41.7 109.4 102.9 353.8
08/05 10:00 10.1 88 8.32 8.2 39 52 1016.1 0 19.2 26.6 40.7 106.7 99.6 342.2
08/05 09:50 10.6 80 7.81 7.3 33 43 1016 0 18.0 25.6 38.3 100.4 92.0 315.7
08/05 09:40 10.4 82 7.9 7.5 37 46 1016.1 0 18.2 25.8 38.8 101.6 93.5 320.8
08/05 09:30 10.1 85 8.04 7.7 39 57 1016.1 0 18.6 26.2 39.5 103.6 95.8 328.7
08/05 09:20 10 97 9.12 9.5 35 43 1015.9 0 20.9 28.0 44.1 115.9 110.9 381.8
08/05 09:10 9.9 100 9.34 9.9 30 37 1015.9 0 21.4 28.4 45.1 118.6 114.2 393.3
08/05 09:00 9.6 95 8.7 8.8 39 52 1015.8 0 20.0 27.4 42.5 111.6 105.5 362.9
08/05 08:50 9.7 100 9.22 9.7 37 46 1015.5 5.2 21.1 28.3 44.7 117.5 112.8 388.1
08/05 08:40 9.3 100 8.99 9.3 28 32 1015.4 5.2 20.7 28.0 43.9 115.4 110.0 378.6
08/05 08:30 8.9 98 8.59 8.6 41 61 1015.5 5.2 19.8 27.4 42.4 111.4 104.9 360.6
08/05 08:20 10.2 83 7.9 7.4 28 33 1015 5 18.3 25.9 38.8 101.8 93.6 321.4
08/05 08:10 10.1 82 7.76 7.2 39 46 1014.8 5 18.0 25.7 38.3 100.3 91.9 315.1
08/05 08:00 9.8 89 8.26 8.1 33 46 1014.6 5 19.1 26.6 40.5 106.3 99.0 340.2
08/05 07:50 9.7 92 8.48 8.5 30 41 1014.2 5 19.5 27.0 41.5 108.8 102.2 351.2
08/05 07:40 9.3 97 8.72 8.8 32 37 1014.1 5 20.1 27.5 42.7 112.1 106.1 364.8
08/05 07:30 9 100 8.82 9 39 54 1013.9 5 20.3 27.7 43.3 113.7 107.9 371.1
08/05 07:20 9.6 100 9.16 9.6 35 39 1013.6 5 21.0 28.1 44.4 116.7 111.9 385.0
08/05 07:10 9.2 100 8.93 9.2 30 35 1013.5 5 20.5 27.9 43.6 114.6 109.2 375.5
08/05 07:00 9.4 88 7.96 7.5 37 52 1013.4 5 18.4 26.1 39.4 103.3 95.3 327.1
08/05 06:50 9.4 99 8.96 9.3 43 50 1013.2 5 20.6 27.8 43.6 114.6 109.3 375.9
08/05 06:40 9.6 88 8.06 7.7 44 52 1013.1 5 18.6 26.2 39.7 104.1 96.4 331.0
08/05 06:30 9.1 95 8.43 8.3 39 52 1013 5 19.5 27.0 41.5 109.0 102.2 351.1
08/05 06:20 9.1 100 8.88 9.1 44 50 1012.9 5 20.4 27.8 43.4 114.1 108.5 373.3
08/05 06:10 8.7 100 8.65 8.7 37 44 1012.7 5 19.9 27.5 42.6 112.0 105.8 363.7
08/05 06:00 8.7 100 8.65 8.7 43 63 1012.7 5 19.9 27.5 42.6 112.0 105.8 363.7
08/05 05:50 9 100 8.82 9 37 44 1012.3 4.8 20.3 27.7 43.2 113.5 107.8 370.6
08/05 05:40 8.7 100 8.65 8.7 35 41 1012.3 4.8 19.9 27.5 42.6 112.0 105.8 363.6
08/05 05:30 9.4 95 8.59 8.6 33 56 1012.2 4.8 19.8 27.2 42.0 110.3 104.0 357.3
08/05 05:20 9 97 8.55 8.5 35 43 1012 4.8 19.7 27.2 42.0 110.4 103.9 357.2
08/05 05:10 9.8 91 8.45 8.4 41 50 1011.8 4.8 19.5 26.8 41.2 108.1 101.4 348.6
08/05 05:00 9.8 89 8.26 8.1 43 57 1011.4 4.8 19.1 26.4 40.3 105.9 98.8 339.3
08/05 04:50 9.6 84 7.7 7 52 57 1011.2 4.8 17.9 25.6 38.1 100.0 91.4 313.3
08/05 04:40 9.7 89 8.21 8 43 50 1010.9 4.8 19.0 26.4 40.2 105.4 98.2 337.2
08/05 04:30 9.7 86 7.93 7.5 52 67 1010.8 4.8 18.3 25.9 39.0 102.3 94.3 323.7
08/05 04:20 9.6 91 8.34 8.2 43 48 1010.4 4.8 19.2 26.6 40.7 107.0 100.1 343.7
08/05 04:10 9.4 95 8.59 8.6 56 59 1010.3 4.8 19.8 27.1 41.9 110.1 103.8 356.8
08/05 04:00 9.1 100 8.88 9.1 43 61 1010.3 4.8 20.4 27.7 43.3 113.8 108.3 372.5
08/05 03:50 9.5 100 9.1 9.5 52 59 1010 4.8 20.9 27.9 44.0 115.7 110.8 381.4
08/05 03:40 9.6 100 9.16 9.6 52 65 1009.8 4.8 21.0 28.0 44.2 116.3 111.5 383.9
08/05 03:30 9.1 100 8.88 9.1 48 74 1009.7 4.8 20.4 27.7 43.3 113.8 108.2 372.4
08/05 03:20 9.1 100 8.88 9.1 57 69 1009.8 4.8 20.4 27.7 43.3 113.8 108.3 372.4
08/05 03:10 9 100 8.82 9 54 59 1009.6 4.8 20.3 27.6 43.1 113.2 107.5 369.8
08/05 03:00 9.1 100 8.88 9.1 50 69 1009.4 4.6 20.4 27.6 43.3 113.7 108.2 372.3
08/05 02:50 9.7 96 8.85 9.1 43 56 1009.3 4.6 20.3 27.4 42.8 112.5 106.9 367.9
08/05 02:40 9 100 8.82 9 35 50 1009.4 4.6 20.3 27.6 43.1 113.2 107.5 369.8
08/05 02:30 9.6 100 9.16 9.6 43 69 1008.8 4.6 21.0 27.9 44.2 116.1 111.4 383.6
08/05 02:20 9.5 100 9.1 9.5 52 61 1008.8 4.6 20.9 27.9 44.0 115.6 110.7 381.1
08/05 02:10 9.7 100 9.22 9.7 44 54 1008.5 4.6 21.1 28.0 44.4 116.6 112.1 386.0
08/05 02:00 9.9 100 9.34 9.9 41 56 1008.3 4.6 21.4 28.1 44.8 117.7 113.5 390.9
08/05 01:50 9 100 8.82 9 48 52 1008.2 4.6 20.3 27.5 43.0 113.0 107.4 369.4
08/05 01:40 9 100 8.82 9 39 46 1008.2 4.4 20.3 27.5 43.0 113.0 107.4 369.4
08/05 01:30 9.3 100 8.99 9.3 54 70 1008.2 4.2 20.7 27.7 43.6 114.6 109.4 376.4
08/05 01:20 10.3 96 9.2 9.7 46 57 1008.1 4.2 21.1 27.8 43.9 115.5 110.9 381.9
08/05 01:10 10.3 96 9.2 9.7 48 61 1007.9 4.2 21.1 27.8 43.9 115.4 110.9 381.8
08/05 01:00 9.6 100 9.16 9.6 48 70 1007.9 4.2 21.0 27.9 44.1 116.0 111.4 383.3
08/05 00:50 9.9 100 9.34 9.9 41 52 1007.9 4.2 21.4 28.1 44.7 117.7 113.5 390.8
08/05 00:40 10.2 100 9.52 10.2 39 46 1007.7 4.2 21.8 28.3 45.3 119.3 115.6 398.1
08/05 00:30 10 100 9.4 10 43 69 1007.6 4 21.5 28.2 44.9 118.2 114.2 393.1
08/05 00:20 9.7 100 9.22 9.7 41 48 1007.5 4 21.1 28.0 44.3 116.5 112.0 385.7
08/05 00:10 10.7 96 9.43 10.1 48 57 1007.2 4 21.5 28.0 44.6 117.4 113.5 390.9
08/05 00:00 10.6 93 9.08 9.5 46 72 1007 4 20.8 27.4 43.2 113.5 108.7 374.2
07/05 23:50 10.5 96 9.31 9.9 59 70 1007 4 21.3 27.8 44.2 116.3 112.1 386.0
07/05 23:40 10.1 100 9.46 10.1 52 67 1007.1 4 21.6 28.2 45.1 118.7 114.8 395.5
07/05 23:30 10.4 100 9.64 10.4 44 59 1006.7 4 22.0 28.4 45.7 120.2 116.9 402.8
07/05 23:20 10.3 100 9.58 10.3 50 57 1006.6 4 21.9 28.4 45.5 119.7 116.2 400.3
07/05 23:10 10.8 100 9.89 10.8 43 56 1006.7 4 22.5 28.7 46.5 122.5 119.9 413.2
07/05 23:00 10.8 100 9.89 10.8 46 63 1006.8 4 22.5 28.8 46.6 122.5 119.9 413.2
07/05 22:50 10.1 100 9.46 10.1 46 57 1006.8 4 21.6 28.2 45.1 118.6 114.8 395.4
07/05 22:40 11 100 10.01 11 54 61 1006.5 4 22.8 28.9 46.9 123.6 121.2 418.1
07/05 22:30 10.9 100 9.95 10.9 54 69 1006.6 4 22.7 28.8 46.7 123.1 120.6 415.6
07/05 22:20 10.9 100 9.95 10.9 52 63 1006.6 4 22.7 28.8 46.7 123.1 120.6 415.6
07/05 22:10 10.5 100 9.7 10.5 52 65 1006.5 4 22.1 28.5 45.9 120.8 117.6 405.2
07/05 22:00 10.8 100 9.89 10.8 44 69 1006.2 4 22.5 28.7 46.5 122.5 119.8 413.0
07/05 21:50 11.1 100 10.07 11.1 46 57 1006.4 3.8 22.9 29.0 47.1 124.1 121.9 420.5
07/05 21:40 11 100 10.01 11 48 56 1006.4 3.8 22.8 28.9 46.9 123.6 121.2 418.0
07/05 21:30 11.1 100 10.07 11.1 56 76 1006.3 3.8 22.9 28.9 47.1 124.1 121.9 420.5
07/05 21:20 11.4 100 10.27 11.4 65 76 1005.6 3.8 23.3 29.2 47.8 125.9 124.3 428.7
07/05 21:10 11 100 10.01 11 67 80 1005.9 3.8 22.8 28.9 46.9 123.5 121.2 417.9
07/05 21:00 11.2 100 10.14 11.2 61 76 1005.8 3.8 23.1 29.0 47.4 124.7 122.7 423.3
07/05 20:50 11.1 100 10.07 11.1 67 72 1005.7 3.8 22.9 28.9 47.1 124.0 121.9 420.3
07/05 20:40 11.4 100 10.27 11.4 57 65 1005.4 3.8 23.3 29.2 47.8 125.8 124.2 428.6
07/05 20:30 11.3 100 10.2 11.3 63 78 1005.2 3.8 23.2 29.1 47.5 125.2 123.4 425.6
07/05 20:20 11.3 100 10.2 11.3 63 70 1005.4 3.8 23.2 29.1 47.5 125.2 123.4 425.6
07/05 20:10 11.4 100 10.27 11.4 69 82 1005.1 3.4 23.3 29.2 47.8 125.8 124.2 428.5
07/05 20:00 11.4 100 10.27 11.4 72 85 1005 3.4 23.3 29.1 47.8 125.8 124.2 428.5

Last Refresh: 08-May-2026 12:08:02

Bureau of Meteorology